createdAt,value
2018-07-13T00:00:02.667Z,86.60
2018-07-13T00:02:31.318Z,86.21
2018-07-13T00:05:00.050Z,86.59
2018-07-13T00:07:29.008Z,86.34
2018-07-13T00:09:58.030Z,85.93
2018-07-13T00:12:27.070Z,85.35
2018-07-13T00:15:07.578Z,85.31
2018-07-13T00:17:36.645Z,84.93
2018-07-13T00:20:05.918Z,85.48
2018-07-13T00:22:34.632Z,85.83
2018-07-13T00:25:03.358Z,85.43
2018-07-13T00:27:32.034Z,85.80
2018-07-13T00:30:00.692Z,85.17
2018-07-13T00:32:29.582Z,84.65
2018-07-13T00:34:59.036Z,84.94
2018-07-13T00:37:28.288Z,85.60
2018-07-13T00:39:57.765Z,85.28
2018-07-13T00:42:26.403Z,85.19
2018-07-13T00:44:55.696Z,84.58
2018-07-13T00:47:24.586Z,85.68
2018-07-13T00:49:53.584Z,84.87
2018-07-13T00:52:22.261Z,84.86
2018-07-13T00:54:51.032Z,85.13
2018-07-13T00:57:21.495Z,85.16
2018-07-13T00:59:50.521Z,85.17
2018-07-13T01:02:19.430Z,85.45
2018-07-13T01:04:48.536Z,85.44
2018-07-13T01:07:17.199Z,84.87
2018-07-13T01:09:46.446Z,85.95
2018-07-13T01:12:15.195Z,85.63
2018-07-13T01:14:43.903Z,85.81
2018-07-13T01:17:12.560Z,85.62
2018-07-13T01:19:41.430Z,85.69
2018-07-13T01:22:10.066Z,85.34
2018-07-13T01:24:39.060Z,85.81
2018-07-13T01:27:07.714Z,85.34
2018-07-13T01:29:36.769Z,85.75
2018-07-13T01:32:05.445Z,85.56
2018-07-13T01:34:34.429Z,85.59
2018-07-13T01:37:03.021Z,85.20
2018-07-13T01:39:31.677Z,85.04
2018-07-13T01:42:00.400Z,85.50
2018-07-13T01:44:29.705Z,85.70
2018-07-13T01:46:58.424Z,85.40
2018-07-13T01:49:27.721Z,84.81
2018-07-13T01:51:56.839Z,85.01
2018-07-13T01:54:25.914Z,84.63
2018-07-13T01:56:54.532Z,85.42
2018-07-13T01:59:23.480Z,84.67
2018-07-13T02:01:52.382Z,85.20
2018-07-13T02:04:21.333Z,85.37
2018-07-13T02:06:49.979Z,84.76
2018-07-13T02:09:18.690Z,84.73
2018-07-13T02:11:47.316Z,85.28
2018-07-13T02:14:16.450Z,85.38
2018-07-13T02:16:45.081Z,84.69
2018-07-13T02:19:14.713Z,84.76
2018-07-13T02:21:45.284Z,85.57
2018-07-13T02:24:14.789Z,85.09
2018-07-13T02:26:44.629Z,85.13
2018-07-13T02:29:14.266Z,84.37
2018-07-13T02:31:42.881Z,85.07
2018-07-13T02:34:11.569Z,85.34
2018-07-13T02:36:40.545Z,85.80
2018-07-13T02:39:10.217Z,84.99
2018-07-13T02:41:39.397Z,85.25
2018-07-13T02:44:08.361Z,85.83
2018-07-13T02:46:37.014Z,86.07
2018-07-13T02:49:06.522Z,86.05
2018-07-13T02:51:35.184Z,85.87
2018-07-13T02:54:03.901Z,85.99
2018-07-13T02:56:32.527Z,85.51
2018-07-13T02:59:01.148Z,85.49
2018-07-13T03:01:30.142Z,85.85
2018-07-13T03:03:59.069Z,86.23
2018-07-13T03:06:27.713Z,85.88
2018-07-13T03:08:56.779Z,85.91
2018-07-13T03:11:25.413Z,85.30
2018-07-13T03:13:54.073Z,85.79
2018-07-13T03:16:22.707Z,85.98
2018-07-13T03:18:51.681Z,84.57
2018-07-13T03:21:20.311Z,84.75
2018-07-13T03:23:49.043Z,84.79
2018-07-13T03:26:17.765Z,83.81
2018-07-13T03:28:46.403Z,83.96
2018-07-13T03:31:15.409Z,84.16
2018-07-13T03:33:44.054Z,83.18
2018-07-13T03:36:12.666Z,83.30
2018-07-13T03:38:41.670Z,82.93
2018-07-13T03:41:10.383Z,82.19
2018-07-13T03:43:39.415Z,82.50
2018-07-13T03:46:08.781Z,82.10
2018-07-13T03:48:37.416Z,82.34
2018-07-13T03:51:06.321Z,81.88
2018-07-13T03:53:34.986Z,82.31
2018-07-13T03:56:04.238Z,82.45
2018-07-13T03:58:33.234Z,81.70
2018-07-13T04:01:02.260Z,80.68
2018-07-13T04:03:30.909Z,81.03
2018-07-13T04:06:00.343Z,81.38
2018-07-13T04:08:29.028Z,81.91
2018-07-13T04:10:58.109Z,81.65
2018-07-13T04:13:26.741Z,82.17
2018-07-13T04:15:55.710Z,81.47
2018-07-13T04:18:25.438Z,81.93
2018-07-13T04:20:54.895Z,81.64
2018-07-13T04:23:25.169Z,81.04
2018-07-13T04:25:54.189Z,82.00
2018-07-13T04:28:23.359Z,81.75
2018-07-13T04:30:52.318Z,82.12
2018-07-13T04:33:21.278Z,81.68
2018-07-13T04:35:49.909Z,82.32
2018-07-13T04:38:18.602Z,82.68
2018-07-13T04:40:47.277Z,83.34
2018-07-13T04:43:16.429Z,82.46
2018-07-13T04:45:45.557Z,83.20
2018-07-13T04:48:14.296Z,82.65
2018-07-13T04:50:43.065Z,82.70
2018-07-13T04:53:11.732Z,82.75
2018-07-13T04:55:41.025Z,83.43
2018-07-13T04:58:09.772Z,83.08
2018-07-13T05:00:39.901Z,83.10
2018-07-13T05:03:09.939Z,82.76
2018-07-13T05:05:39.376Z,83.33
2018-07-13T05:08:14.560Z,82.66
2018-07-13T05:10:43.215Z,82.73
2018-07-13T05:13:11.971Z,82.31
2018-07-13T05:15:40.662Z,82.04
2018-07-13T05:18:09.754Z,81.49
2018-07-13T05:20:38.451Z,80.58
2018-07-13T05:23:08.051Z,81.09
2018-07-13T05:25:36.896Z,81.52
2018-07-13T05:28:06.368Z,81.11
2018-07-13T05:30:35.429Z,81.33
2018-07-13T05:33:04.216Z,81.40
2018-07-13T05:35:33.371Z,81.50
2018-07-13T05:38:02.178Z,80.98
2018-07-13T05:40:30.867Z,81.61
2018-07-13T05:42:59.586Z,81.59
2018-07-13T05:45:28.262Z,81.25
2018-07-13T05:47:57.066Z,80.94
2018-07-13T05:50:25.749Z,80.54
2018-07-13T05:52:54.422Z,80.47
2018-07-13T05:55:23.255Z,80.17
2018-07-13T05:57:52.003Z,80.18
2018-07-13T06:00:21.085Z,80.94
2018-07-13T06:02:50.136Z,80.97
2018-07-13T06:05:19.443Z,81.15
2018-07-13T06:07:48.367Z,81.37
2018-07-13T06:10:17.337Z,81.23
2018-07-13T06:12:47.456Z,81.42
2018-07-13T06:15:16.097Z,81.25
2018-07-13T06:17:45.025Z,80.74
2018-07-13T06:20:13.827Z,79.88
2018-07-13T06:22:42.822Z,79.57
2018-07-13T06:25:12.533Z,79.20
2018-07-13T06:27:41.342Z,79.77
2018-07-13T06:30:10.353Z,80.36
2018-07-13T06:32:39.765Z,80.18
2018-07-13T06:35:08.514Z,80.50
2018-07-13T06:37:38.514Z,79.65
2018-07-13T06:40:07.261Z,80.11
2018-07-13T06:42:35.912Z,79.99
2018-07-13T06:45:05.010Z,78.59
2018-07-13T06:47:33.984Z,79.25
2018-07-13T06:50:02.665Z,77.19
2018-07-13T06:52:31.377Z,78.53
2018-07-13T06:55:00.026Z,78.51
2018-07-13T06:57:39.866Z,77.24
2018-07-13T07:01:12.629Z,77.40
2018-07-13T07:04:51.005Z,75.91
2018-07-13T07:07:22.981Z,74.82
2018-07-13T07:09:55.318Z,74.49
2018-07-13T07:12:47.088Z,73.22
2018-07-13T07:15:15.965Z,74.03
2018-07-13T07:17:44.702Z,73.38
2018-07-13T07:20:14.329Z,74.19
2018-07-13T07:22:43.261Z,74.44
2018-07-13T07:25:11.894Z,75.57
2018-07-13T07:27:40.531Z,74.49
2018-07-13T07:30:09.263Z,74.70
2018-07-13T07:32:37.977Z,73.98
2018-07-13T07:35:06.979Z,74.25
2018-07-13T07:37:35.955Z,73.84
2018-07-13T07:40:04.930Z,74.40
2018-07-13T07:42:34.012Z,75.43
2018-07-13T07:45:03.139Z,76.02
2018-07-13T07:47:32.074Z,76.17
2018-07-13T07:50:00.721Z,76.78
2018-07-13T07:52:29.759Z,77.17
2018-07-13T07:54:58.489Z,77.57
2018-07-13T07:57:27.226Z,78.95
2018-07-13T07:59:55.895Z,80.05
2018-07-13T08:02:24.539Z,80.07
2018-07-13T08:04:53.185Z,80.72
2018-07-13T08:07:22.016Z,81.29
2018-07-13T08:09:50.663Z,81.85
2018-07-13T08:12:19.901Z,82.17
2018-07-13T08:14:48.808Z,82.52
2018-07-13T08:17:17.499Z,82.90
2018-07-13T08:19:46.386Z,83.40
2018-07-13T08:22:17.779Z,83.44
2018-07-13T08:24:47.170Z,82.92
2018-07-13T08:27:19.271Z,83.26
2018-07-13T08:29:48.474Z,82.00
2018-07-13T08:32:17.405Z,81.90
2018-07-13T08:34:46.565Z,82.03
2018-07-13T08:37:15.959Z,81.60
2018-07-13T08:39:44.823Z,81.65
2018-07-13T08:42:13.794Z,81.35
2018-07-13T08:44:42.482Z,81.62
2018-07-13T08:47:11.409Z,80.77
2018-07-13T08:49:40.428Z,80.98
2018-07-13T08:52:09.486Z,80.70
2018-07-13T08:54:38.197Z,80.10
2018-07-13T08:57:06.920Z,79.05
2018-07-13T08:59:35.699Z,79.60
2018-07-13T09:02:04.403Z,78.89
2018-07-13T09:04:33.791Z,78.63
2018-07-13T09:07:02.768Z,78.42
2018-07-13T09:09:31.781Z,77.91
2018-07-13T09:12:00.436Z,78.09
2018-07-13T09:14:29.130Z,78.66
2018-07-13T09:16:57.823Z,77.72
2018-07-13T09:19:26.491Z,75.28
2018-07-13T09:21:55.520Z,76.01
2018-07-13T09:24:24.210Z,76.34
2018-07-13T09:26:53.192Z,75.16
2018-07-13T09:29:22.127Z,76.22
2018-07-13T09:31:50.850Z,75.49
2018-07-13T09:34:19.871Z,73.77
2018-07-13T09:36:48.758Z,75.68
2018-07-13T09:39:17.595Z,74.87
2018-07-13T09:41:46.615Z,74.27
2018-07-13T09:44:15.317Z,73.72
2018-07-13T09:46:44.394Z,73.95
2018-07-13T09:49:12.980Z,72.81
2018-07-13T09:51:41.706Z,71.95
2018-07-13T09:54:10.437Z,71.79
2018-07-13T09:56:39.382Z,72.18
2018-07-13T09:59:08.391Z,71.46
2018-07-13T10:01:37.150Z,71.14
2018-07-13T10:04:06.009Z,71.40
2018-07-13T10:06:34.776Z,68.13
2018-07-13T10:09:03.668Z,68.92
2018-07-13T10:11:33.347Z,68.46
2018-07-13T10:14:02.401Z,69.16
2018-07-13T10:16:31.091Z,66.98
2018-07-13T10:18:59.851Z,68.13
2018-07-13T10:21:29.412Z,67.64
2018-07-13T10:23:58.176Z,66.81
2018-07-13T10:26:37.381Z,66.50
2018-07-13T10:29:09.732Z,66.62
2018-07-13T10:31:38.495Z,67.02
2018-07-13T10:34:07.927Z,67.20
2018-07-13T10:36:40.170Z,66.51
2018-07-13T10:39:09.748Z,67.33
2018-07-13T10:41:45.135Z,67.02
2018-07-13T10:44:14.942Z,66.45
2018-07-13T10:46:43.715Z,67.19
2018-07-13T10:49:12.733Z,65.16
2018-07-13T10:51:41.742Z,67.52
2018-07-13T10:54:10.832Z,67.51
2018-07-13T10:56:41.045Z,67.52
2018-07-13T10:59:10.142Z,66.83
2018-07-13T11:01:39.056Z,66.57
2018-07-13T11:04:07.842Z,66.73
2018-07-13T11:06:37.161Z,67.48
2018-07-13T11:09:07.140Z,66.65
2018-07-13T11:11:36.461Z,67.28
2018-07-13T11:14:05.248Z,67.74
2018-07-13T11:16:34.112Z,67.17
2018-07-13T11:19:02.752Z,65.89
2018-07-13T11:21:31.810Z,67.00
2018-07-13T11:24:00.465Z,66.47
2018-07-13T11:26:29.145Z,66.58
2018-07-13T11:28:57.778Z,65.92
2018-07-13T11:31:26.521Z,65.37
2018-07-13T11:33:55.146Z,65.36
2018-07-13T11:36:23.763Z,64.18
2018-07-13T11:38:52.834Z,63.39
2018-07-13T11:41:22.131Z,64.11
2018-07-13T11:43:50.925Z,63.13
2018-07-13T11:46:19.919Z,62.66
2018-07-13T11:48:48.804Z,60.82
2018-07-13T11:51:17.496Z,58.84
2018-07-13T11:53:46.415Z,57.93
2018-07-13T11:56:15.371Z,57.17
2018-07-13T11:58:44.006Z,57.50
2018-07-13T12:01:12.644Z,55.74
2018-07-13T12:03:41.740Z,53.96
2018-07-13T12:06:11.048Z,51.78
2018-07-13T12:08:40.010Z,47.69
2018-07-13T12:11:08.670Z,42.61
2018-07-13T12:13:37.443Z,40.44
2018-07-13T12:16:06.963Z,38.73
2018-07-13T12:18:36.015Z,36.04
2018-07-13T12:21:04.674Z,33.86
2018-07-13T12:23:33.366Z,34.57
2018-07-13T12:26:02.277Z,37.34
2018-07-13T12:28:30.940Z,36.81
2018-07-13T12:30:59.650Z,37.03
2018-07-13T12:33:28.691Z,36.97
2018-07-13T12:35:57.348Z,36.44
2018-07-13T12:38:26.449Z,33.81
2018-07-13T12:40:55.136Z,30.57
2018-07-13T12:43:23.825Z,28.03
2018-07-13T12:45:52.847Z,24.97
2018-07-13T12:48:21.500Z,25.59
2018-07-13T12:50:50.425Z,21.17
2018-07-13T12:53:19.779Z,19.62
2018-07-13T12:55:48.447Z,21.67
2018-07-13T12:58:17.665Z,19.50
2018-07-13T13:00:46.566Z,19.09
2018-07-13T13:03:15.279Z,19.97
2018-07-13T13:05:44.300Z,17.64
2018-07-13T13:08:12.971Z,18.40
2018-07-13T13:10:41.945Z,17.62
2018-07-13T13:13:10.990Z,17.68
2018-07-13T13:15:40.203Z,23.82
2018-07-13T13:18:09.171Z,21.04
2018-07-13T13:20:37.880Z,16.86
2018-07-13T13:23:07.559Z,18.87
2018-07-13T13:25:36.539Z,16.79
2018-07-13T13:28:08.866Z,18.49
2018-07-13T13:30:37.448Z,22.86
2018-07-13T13:33:06.917Z,18.64
2018-07-13T13:35:35.588Z,17.71
2018-07-13T13:38:04.303Z,15.97
2018-07-13T13:40:32.957Z,20.21
2018-07-13T13:43:01.634Z,14.04
2018-07-13T13:45:30.685Z,17.40
2018-07-13T13:47:59.350Z,19.89
2018-07-13T13:50:28.289Z,16.73
2018-07-13T13:52:56.984Z,18.96
2018-07-13T13:55:25.626Z,16.56
2018-07-13T13:57:54.964Z,16.82
2018-07-13T14:00:24.261Z,16.78
2018-07-13T14:02:53.304Z,20.87
2018-07-13T14:05:22.336Z,18.58
2018-07-13T14:07:50.999Z,16.94
2018-07-13T14:10:19.793Z,22.74
2018-07-13T14:12:49.058Z,21.07
2018-07-13T14:15:17.726Z,23.13
2018-07-13T14:17:47.019Z,18.72
2018-07-13T14:20:15.739Z,22.25
2018-07-13T14:22:44.380Z,21.65
2018-07-13T14:25:13.066Z,22.55
2018-07-13T14:27:41.881Z,22.97
2018-07-13T14:30:11.052Z,24.09
2018-07-13T14:32:39.710Z,25.59
2018-07-13T14:35:08.908Z,25.93
2018-07-13T14:37:37.851Z,26.18
2018-07-13T14:40:06.739Z,27.02
2018-07-13T14:42:35.768Z,27.22
2018-07-13T14:45:04.518Z,30.09
2018-07-13T14:47:33.153Z,31.27
2018-07-13T14:50:02.410Z,31.55
2018-07-13T14:52:31.065Z,32.21
2018-07-13T14:55:00.020Z,33.53
2018-07-13T14:57:28.675Z,33.52
2018-07-13T14:59:57.381Z,34.90
2018-07-13T15:02:26.350Z,35.40
2018-07-13T15:04:55.047Z,35.65
2018-07-13T15:07:24.945Z,36.99
2018-07-13T15:09:54.358Z,35.59
2018-07-13T15:12:23.172Z,35.90
2018-07-13T15:14:52.698Z,37.58
2018-07-13T15:17:21.624Z,38.43
2018-07-13T15:19:50.360Z,37.75
2018-07-13T15:22:19.000Z,38.40
2018-07-13T15:24:48.492Z,38.10
2018-07-13T15:27:17.187Z,38.58
2018-07-13T15:29:45.898Z,38.06
2018-07-13T15:32:14.743Z,38.79
2018-07-13T15:34:43.967Z,38.56
2018-07-13T15:37:13.240Z,39.81
2018-07-13T15:39:41.951Z,40.23
2018-07-13T15:42:11.709Z,39.63
2018-07-13T15:44:40.383Z,39.87
2018-07-13T15:47:09.126Z,40.46
2018-07-13T15:49:38.602Z,40.88
2018-07-13T15:52:07.362Z,39.47
2018-07-13T15:54:36.108Z,40.94
2018-07-13T15:57:06.415Z,40.11
2018-07-13T15:59:35.679Z,40.55
2018-07-13T16:02:05.000Z,40.26
2018-07-13T16:04:34.085Z,40.19
2018-07-13T16:07:03.948Z,41.38
2018-07-13T16:09:34.430Z,41.65
2018-07-13T16:12:04.117Z,41.79
2018-07-13T16:14:33.941Z,42.94
2018-07-13T16:17:03.792Z,42.92
2018-07-13T16:19:33.586Z,43.54
2018-07-13T16:22:03.544Z,43.63
2018-07-13T16:24:32.773Z,43.59
2018-07-13T16:27:01.433Z,43.34
2018-07-13T16:29:30.351Z,44.00
2018-07-13T16:31:59.254Z,44.93
2018-07-13T16:34:28.285Z,42.42
2018-07-13T16:36:57.002Z,42.79
2018-07-13T16:39:26.543Z,35.97
2018-07-13T16:41:55.283Z,34.34
2018-07-13T16:44:24.299Z,40.80
2018-07-13T16:46:53.046Z,39.27
2018-07-13T16:49:21.811Z,43.75
2018-07-13T16:51:51.327Z,44.00
2018-07-13T16:54:20.629Z,44.86
2018-07-13T16:56:49.674Z,51.37
2018-07-13T16:59:18.323Z,51.91
2018-07-13T17:01:47.055Z,51.47
2018-07-13T17:04:15.715Z,51.32
2018-07-13T17:06:44.671Z,51.75
2018-07-13T17:09:13.341Z,51.52
2018-07-13T17:11:42.797Z,51.11
2018-07-13T17:14:11.502Z,51.23
2018-07-13T17:16:40.141Z,52.48
2018-07-13T17:19:09.282Z,53.77
2018-07-13T17:21:37.949Z,54.91
2018-07-13T17:24:06.888Z,54.15
2018-07-13T17:26:35.598Z,54.03
2018-07-13T17:29:04.334Z,55.03
2018-07-13T17:31:33.152Z,56.72
2018-07-13T17:34:01.866Z,55.50
2018-07-13T17:36:31.126Z,53.97
2018-07-13T17:38:59.826Z,54.00
2018-07-13T17:41:28.459Z,54.50
2018-07-13T17:43:57.305Z,52.92
2018-07-13T17:46:26.070Z,53.56
2018-07-13T17:48:54.746Z,52.89
2018-07-13T17:51:23.548Z,51.81
2018-07-13T17:53:52.510Z,52.60
2018-07-13T17:56:21.233Z,53.77
2018-07-13T17:58:50.310Z,52.77
2018-07-13T18:01:19.101Z,52.76
2018-07-13T18:03:47.802Z,52.55
2018-07-13T18:06:16.602Z,53.31
2018-07-13T18:08:45.346Z,53.89
2018-07-13T18:11:14.021Z,54.40
2018-07-13T18:13:42.765Z,54.80
2018-07-13T18:16:11.709Z,54.68
2018-07-13T18:18:40.412Z,53.73
2018-07-13T18:21:09.140Z,54.35
2018-07-13T18:23:37.945Z,54.86
2018-07-13T18:26:06.634Z,53.29
2018-07-13T18:28:35.654Z,54.24
2018-07-13T18:31:06.295Z,54.47
2018-07-13T18:33:35.018Z,53.47
2018-07-13T18:36:03.664Z,54.11
2018-07-13T18:38:32.457Z,52.70
2018-07-13T18:41:01.678Z,53.84
2018-07-13T18:43:39.916Z,53.81
2018-07-13T18:46:09.923Z,53.67
2018-07-13T18:48:39.286Z,53.58
2018-07-13T18:51:08.438Z,53.70
2018-07-13T18:53:37.581Z,53.57
2018-07-13T18:56:06.358Z,52.82
2018-07-13T18:58:35.777Z,52.66
2018-07-13T19:01:04.633Z,52.92
2018-07-13T19:03:33.660Z,52.55
2018-07-13T19:06:02.470Z,52.36
2018-07-13T19:08:31.544Z,53.61
2018-07-13T19:11:00.544Z,52.35
2018-07-13T19:13:29.518Z,53.00
2018-07-13T19:15:58.542Z,52.75
2018-07-13T19:18:27.266Z,52.04
2018-07-13T19:20:56.154Z,52.56
2018-07-13T19:23:24.845Z,52.31
2018-07-13T19:25:53.897Z,52.06
2018-07-13T19:28:22.762Z,52.56
2018-07-13T19:30:54.095Z,53.76
2018-07-13T19:33:23.641Z,53.83
2018-07-13T19:35:52.416Z,54.22
2018-07-13T19:38:21.170Z,55.04
2018-07-13T19:40:49.877Z,55.10
2018-07-13T19:43:18.615Z,55.43
2018-07-13T19:45:48.047Z,55.56
2018-07-13T19:48:17.143Z,56.04
2018-07-13T19:50:46.396Z,56.40
2018-07-13T19:53:15.337Z,56.69
2018-07-13T19:55:44.314Z,57.23
2018-07-13T19:58:13.031Z,57.50
2018-07-13T20:00:41.893Z,57.10
2018-07-13T20:03:10.956Z,57.36
2018-07-13T20:05:39.648Z,57.79
2018-07-13T20:08:08.709Z,58.57
2018-07-13T20:10:37.536Z,58.74
2018-07-13T20:13:07.042Z,58.85
2018-07-13T20:15:35.826Z,59.57
2018-07-13T20:18:04.724Z,59.63
2018-07-13T20:20:33.773Z,59.31
2018-07-13T20:23:03.174Z,59.36
2018-07-13T20:25:32.299Z,60.16
2018-07-13T20:28:01.005Z,59.46
2018-07-13T20:30:29.898Z,59.47
2018-07-13T20:32:59.796Z,59.41
2018-07-13T20:35:29.212Z,59.28
2018-07-13T20:37:58.056Z,59.31
2018-07-13T20:40:26.750Z,60.93
2018-07-13T20:42:56.090Z,60.83
2018-07-13T20:45:24.908Z,60.45
2018-07-13T20:47:55.291Z,60.72
2018-07-13T20:50:24.046Z,60.63
2018-07-13T20:52:53.568Z,61.18
2018-07-13T20:55:24.265Z,61.87
2018-07-13T20:57:53.250Z,61.63
2018-07-13T21:00:22.347Z,61.94
2018-07-13T21:02:51.242Z,62.30
2018-07-13T21:05:19.969Z,62.11
2018-07-13T21:07:49.117Z,62.21
2018-07-13T21:10:18.448Z,62.87
2018-07-13T21:12:47.121Z,63.11
2018-07-13T21:15:17.592Z,63.13
2018-07-13T21:17:46.687Z,63.71
2018-07-13T21:20:16.049Z,64.05
2018-07-13T21:22:45.433Z,63.46
2018-07-13T21:25:14.217Z,64.20
2018-07-13T21:27:43.240Z,63.94
2018-07-13T21:30:16.866Z,64.36
2018-07-13T21:32:49.290Z,63.72
2018-07-13T21:35:27.688Z,64.13
2018-07-13T21:37:59.260Z,64.06
2018-07-13T21:40:28.134Z,63.60
2018-07-13T21:42:57.979Z,63.91
2018-07-13T21:45:27.482Z,64.56
2018-07-13T21:47:56.363Z,64.27
2018-07-13T21:50:25.919Z,64.13
2018-07-13T21:52:54.615Z,64.22
2018-07-13T21:55:27.927Z,64.39
2018-07-13T21:57:56.546Z,64.64
2018-07-13T22:00:25.651Z,64.46
2018-07-13T22:02:54.347Z,64.47
2018-07-13T22:05:24.682Z,65.16
2018-07-13T22:07:54.104Z,64.81
2018-07-13T22:10:22.962Z,65.05
2018-07-13T22:12:51.811Z,65.19
2018-07-13T22:15:20.596Z,65.14
2018-07-13T22:17:49.243Z,64.60
2018-07-13T22:20:18.271Z,64.86
2018-07-13T22:22:47.265Z,64.87
2018-07-13T22:25:16.131Z,64.73
2018-07-13T22:27:44.930Z,65.41
2018-07-13T22:30:13.608Z,64.89
2018-07-13T22:32:42.375Z,64.82
2018-07-13T22:35:11.316Z,65.37
2018-07-13T22:37:40.422Z,65.43
2018-07-13T22:40:09.609Z,65.06
2018-07-13T22:42:38.656Z,64.90
2018-07-13T22:45:07.410Z,64.68
2018-07-13T22:47:36.261Z,65.40
2018-07-13T22:50:05.252Z,64.58
2018-07-13T22:52:34.007Z,65.32
2018-07-13T22:55:02.772Z,65.09
2018-07-13T22:57:32.309Z,64.80
2018-07-13T23:00:01.422Z,65.03
2018-07-13T23:02:30.029Z,64.92
2018-07-13T23:04:59.255Z,65.10
2018-07-13T23:07:28.532Z,65.60
2018-07-13T23:09:57.294Z,65.86
2018-07-13T23:12:26.336Z,65.57
2018-07-13T23:14:55.026Z,65.64
2018-07-13T23:17:23.954Z,65.96
2018-07-13T23:19:52.716Z,66.11
2018-07-13T23:22:21.726Z,66.34
2018-07-13T23:24:50.515Z,66.33
2018-07-13T23:27:19.142Z,66.78
2018-07-13T23:29:47.780Z,66.96
2018-07-13T23:32:16.759Z,66.96
2018-07-13T23:34:45.535Z,67.54
2018-07-13T23:37:14.264Z,67.31
2018-07-13T23:39:43.154Z,68.10
2018-07-13T23:42:11.813Z,67.55
2018-07-13T23:44:40.474Z,67.95
2018-07-13T23:47:09.390Z,67.99
2018-07-13T23:49:38.311Z,68.09
2018-07-13T23:52:07.079Z,67.58
2018-07-13T23:54:36.106Z,68.69
2018-07-13T23:57:04.871Z,68.09
2018-07-13T23:59:33.598Z,68.99
